sensor_id;sensor_type;location;lat;lon;timestamp;P1;durP1;ratioP1;P2;durP2;ratioP2
9970;SDS011;5026;51.494;11.974;2022-09-09T00:01:40;1.92;;;1.50;;
9970;SDS011;5026;51.494;11.974;2022-09-09T00:04:17;5.70;;;1.42;;
9970;SDS011;5026;51.494;11.974;2022-09-09T00:06:55;3.58;;;1.60;;
9970;SDS011;5026;51.494;11.974;2022-09-09T00:09:29;2.13;;;1.02;;
9970;SDS011;5026;51.494;11.974;2022-09-09T00:11:58;4.85;;;1.40;;
9970;SDS011;5026;51.494;11.974;2022-09-09T00:14:31;2.67;;;1.30;;
9970;SDS011;5026;51.494;11.974;2022-09-09T00:17:04;1.60;;;1.50;;
9970;SDS011;5026;51.494;11.974;2022-09-09T00:19:39;2.10;;;1.30;;
9970;SDS011;5026;51.494;11.974;2022-09-09T00:22:16;3.65;;;1.30;;
9970;SDS011;5026;51.494;11.974;2022-09-09T00:24:44;2.90;;;1.35;;
9970;SDS011;5026;51.494;11.974;2022-09-09T00:27:16;1.30;;;1.20;;
9970;SDS011;5026;51.494;11.974;2022-09-09T00:29:52;3.13;;;1.40;;
9970;SDS011;5026;51.494;11.974;2022-09-09T00:32:21;1.52;;;1.42;;
9970;SDS011;5026;51.494;11.974;2022-09-09T00:34:52;2.20;;;1.50;;
9970;SDS011;5026;51.494;11.974;2022-09-09T00:37:21;2.63;;;1.65;;
9970;SDS011;5026;51.494;11.974;2022-09-09T00:39:50;1.52;;;1.42;;
9970;SDS011;5026;51.494;11.974;2022-09-09T00:42:23;2.55;;;1.75;;
9970;SDS011;5026;51.494;11.974;2022-09-09T00:44:55;7.20;;;1.33;;
9970;SDS011;5026;51.494;11.974;2022-09-09T00:50:17;5.55;;;1.40;;
9970;SDS011;5026;51.494;11.974;2022-09-09T00:53:01;1.65;;;1.35;;
9970;SDS011;5026;51.494;11.974;2022-09-09T00:55:39;3.25;;;1.33;;
9970;SDS011;5026;51.494;11.974;2022-09-09T00:58:11;1.83;;;1.27;;
9970;SDS011;5026;51.494;11.974;2022-09-09T01:00:42;3.75;;;1.10;;
9970;SDS011;5026;51.494;11.974;2022-09-09T01:03:19;2.58;;;1.55;;
9970;SDS011;5026;51.494;11.974;2022-09-09T01:05:51;3.60;;;1.30;;
9970;SDS011;5026;51.494;11.974;2022-09-09T01:08:33;2.10;;;1.13;;
9970;SDS011;5026;51.494;11.974;2022-09-09T01:11:15;2.92;;;1.35;;
9970;SDS011;5026;51.494;11.974;2022-09-09T01:13:49;2.65;;;1.33;;
9970;SDS011;5026;51.494;11.974;2022-09-09T01:16:25;1.40;;;1.30;;
9970;SDS011;5026;51.494;11.974;2022-09-09T01:18:55;2.67;;;1.48;;
9970;SDS011;5026;51.494;11.974;2022-09-09T01:21:27;2.00;;;1.50;;
9970;SDS011;5026;51.494;11.974;2022-09-09T01:24:05;4.15;;;1.90;;
9970;SDS011;5026;51.494;11.974;2022-09-09T01:26:51;2.92;;;1.73;;
9970;SDS011;5026;51.494;11.974;2022-09-09T01:29:21;3.40;;;1.42;;
9970;SDS011;5026;51.494;11.974;2022-09-09T01:31:52;4.97;;;1.58;;
9970;SDS011;5026;51.494;11.974;2022-09-09T01:34:21;1.70;;;1.20;;
9970;SDS011;5026;51.494;11.974;2022-09-09T01:36:51;2.70;;;1.40;;
9970;SDS011;5026;51.494;11.974;2022-09-09T01:39:23;2.67;;;1.73;;
9970;SDS011;5026;51.494;11.974;2022-09-09T01:41:51;2.20;;;1.48;;
9970;SDS011;5026;51.494;11.974;2022-09-09T01:44:19;1.95;;;1.73;;
9970;SDS011;5026;51.494;11.974;2022-09-09T01:46:46;1.92;;;1.38;;
9970;SDS011;5026;51.494;11.974;2022-09-09T01:49:13;3.33;;;1.40;;
9970;SDS011;5026;51.494;11.974;2022-09-09T01:51:40;1.45;;;1.35;;
9970;SDS011;5026;51.494;11.974;2022-09-09T01:54:09;3.25;;;1.25;;
9970;SDS011;5026;51.494;11.974;2022-09-09T01:56:40;3.88;;;1.30;;
9970;SDS011;5026;51.494;11.974;2022-09-09T01:59:21;2.45;;;1.15;;
9970;SDS011;5026;51.494;11.974;2022-09-09T02:02:09;3.17;;;1.55;;
9970;SDS011;5026;51.494;11.974;2022-09-09T02:04:38;2.95;;;1.38;;
9970;SDS011;5026;51.494;11.974;2022-09-09T02:07:10;2.97;;;1.40;;
9970;SDS011;5026;51.494;11.974;2022-09-09T02:09:49;3.45;;;1.42;;
9970;SDS011;5026;51.494;11.974;2022-09-09T02:12:23;3.17;;;1.30;;
9970;SDS011;5026;51.494;11.974;2022-09-09T02:14:56;2.17;;;1.13;;
9970;SDS011;5026;51.494;11.974;2022-09-09T02:17:29;4.13;;;1.30;;
9970;SDS011;5026;51.494;11.974;2022-09-09T02:20:01;4.68;;;1.60;;
9970;SDS011;5026;51.494;11.974;2022-09-09T02:22:31;2.78;;;1.40;;
9970;SDS011;5026;51.494;11.974;2022-09-09T02:25:00;2.55;;;1.50;;
9970;SDS011;5026;51.494;11.974;2022-09-09T02:27:30;4.03;;;1.35;;
9970;SDS011;5026;51.494;11.974;2022-09-09T02:29:59;1.20;;;1.10;;
9970;SDS011;5026;51.494;11.974;2022-09-09T02:32:27;2.13;;;1.35;;
9970;SDS011;5026;51.494;11.974;2022-09-09T02:34:57;2.10;;;1.40;;
9970;SDS011;5026;51.494;11.974;2022-09-09T02:37:29;1.60;;;1.30;;
9970;SDS011;5026;51.494;11.974;2022-09-09T02:40:01;3.05;;;1.40;;
9970;SDS011;5026;51.494;11.974;2022-09-09T02:42:28;4.22;;;1.20;;
9970;SDS011;5026;51.494;11.974;2022-09-09T02:44:56;3.83;;;1.48;;
9970;SDS011;5026;51.494;11.974;2022-09-09T02:47:29;3.90;;;1.50;;
9970;SDS011;5026;51.494;11.974;2022-09-09T02:50:07;4.45;;;1.63;;
9970;SDS011;5026;51.494;11.974;2022-09-09T02:52:42;2.65;;;1.13;;
9970;SDS011;5026;51.494;11.974;2022-09-09T02:55:16;1.48;;;1.23;;
9970;SDS011;5026;51.494;11.974;2022-09-09T02:57:49;2.35;;;1.40;;
9970;SDS011;5026;51.494;11.974;2022-09-09T03:00:22;3.15;;;1.50;;
9970;SDS011;5026;51.494;11.974;2022-09-09T03:02:51;3.47;;;1.65;;
9970;SDS011;5026;51.494;11.974;2022-09-09T03:05:19;2.28;;;2.05;;
9970;SDS011;5026;51.494;11.974;2022-09-09T03:07:46;2.67;;;1.48;;
9970;SDS011;5026;51.494;11.974;2022-09-09T03:10:14;5.32;;;1.75;;
9970;SDS011;5026;51.494;11.974;2022-09-09T03:12:42;4.55;;;1.65;;
9970;SDS011;5026;51.494;11.974;2022-09-09T03:15:09;2.65;;;1.67;;
9970;SDS011;5026;51.494;11.974;2022-09-09T03:17:36;3.67;;;1.45;;
9970;SDS011;5026;51.494;11.974;2022-09-09T03:20:05;5.60;;;1.45;;
9970;SDS011;5026;51.494;11.974;2022-09-09T03:22:32;2.75;;;1.23;;
9970;SDS011;5026;51.494;11.974;2022-09-09T03:24:59;2.92;;;1.30;;
9970;SDS011;5026;51.494;11.974;2022-09-09T03:27:27;1.63;;;1.27;;
9970;SDS011;5026;51.494;11.974;2022-09-09T03:29:54;3.47;;;1.30;;
9970;SDS011;5026;51.494;11.974;2022-09-09T03:32:21;5.68;;;1.80;;
9970;SDS011;5026;51.494;11.974;2022-09-09T03:34:54;2.80;;;1.63;;
9970;SDS011;5026;51.494;11.974;2022-09-09T03:37:22;1.73;;;1.58;;
9970;SDS011;5026;51.494;11.974;2022-09-09T03:39:49;3.42;;;1.60;;
9970;SDS011;5026;51.494;11.974;2022-09-09T03:42:16;3.00;;;2.10;;
9970;SDS011;5026;51.494;11.974;2022-09-09T03:44:44;3.63;;;2.08;;
9970;SDS011;5026;51.494;11.974;2022-09-09T03:47:15;3.70;;;1.63;;
9970;SDS011;5026;51.494;11.974;2022-09-09T03:49:43;5.47;;;1.90;;
9970;SDS011;5026;51.494;11.974;2022-09-09T03:52:10;2.65;;;1.80;;
9970;SDS011;5026;51.494;11.974;2022-09-09T03:54:38;3.55;;;2.28;;
9970;SDS011;5026;51.494;11.974;2022-09-09T03:57:07;4.55;;;2.15;;
9970;SDS011;5026;51.494;11.974;2022-09-09T03:59:34;5.95;;;2.60;;
9970;SDS011;5026;51.494;11.974;2022-09-09T04:02:01;4.35;;;2.38;;
9970;SDS011;5026;51.494;11.974;2022-09-09T04:04:28;5.10;;;2.42;;
9970;SDS011;5026;51.494;11.974;2022-09-09T04:06:56;4.95;;;2.72;;
9970;SDS011;5026;51.494;11.974;2022-09-09T04:09:22;3.88;;;2.42;;
9970;SDS011;5026;51.494;11.974;2022-09-09T04:11:51;10.63;;;2.75;;
9970;SDS011;5026;51.494;11.974;2022-09-09T04:14:18;3.65;;;2.20;;
9970;SDS011;5026;51.494;11.974;2022-09-09T04:16:45;4.30;;;2.63;;
9970;SDS011;5026;51.494;11.974;2022-09-09T04:19:12;5.80;;;3.13;;
9970;SDS011;5026;51.494;11.974;2022-09-09T04:21:40;7.93;;;3.05;;
9970;SDS011;5026;51.494;11.974;2022-09-09T04:24:07;3.63;;;2.63;;
9970;SDS011;5026;51.494;11.974;2022-09-09T04:26:35;2.88;;;2.47;;
9970;SDS011;5026;51.494;11.974;2022-09-09T04:29:04;2.25;;;2.05;;
9970;SDS011;5026;51.494;11.974;2022-09-09T04:31:32;6.22;;;2.53;;
9970;SDS011;5026;51.494;11.974;2022-09-09T04:33:59;5.20;;;2.83;;
9970;SDS011;5026;51.494;11.974;2022-09-09T04:36:30;4.50;;;2.42;;
9970;SDS011;5026;51.494;11.974;2022-09-09T04:38:58;2.33;;;1.90;;
9970;SDS011;5026;51.494;11.974;2022-09-09T04:41:25;4.72;;;2.55;;
9970;SDS011;5026;51.494;11.974;2022-09-09T04:43:52;3.30;;;2.33;;
9970;SDS011;5026;51.494;11.974;2022-09-09T04:46:20;5.63;;;2.35;;
9970;SDS011;5026;51.494;11.974;2022-09-09T04:48:48;4.10;;;2.20;;
9970;SDS011;5026;51.494;11.974;2022-09-09T04:51:15;5.70;;;2.42;;
9970;SDS011;5026;51.494;11.974;2022-09-09T04:53:43;4.05;;;2.35;;
9970;SDS011;5026;51.494;11.974;2022-09-09T04:56:11;4.70;;;2.03;;
9970;SDS011;5026;51.494;11.974;2022-09-09T04:58:39;3.83;;;1.67;;
9970;SDS011;5026;51.494;11.974;2022-09-09T05:01:08;4.22;;;2.50;;
9970;SDS011;5026;51.494;11.974;2022-09-09T05:03:38;2.33;;;1.92;;
9970;SDS011;5026;51.494;11.974;2022-09-09T05:06:14;4.45;;;2.42;;
9970;SDS011;5026;51.494;11.974;2022-09-09T05:08:42;5.55;;;2.65;;
9970;SDS011;5026;51.494;11.974;2022-09-09T05:11:13;3.88;;;2.30;;
9970;SDS011;5026;51.494;11.974;2022-09-09T05:13:42;3.35;;;2.50;;
9970;SDS011;5026;51.494;11.974;2022-09-09T05:16:09;3.67;;;2.50;;
9970;SDS011;5026;51.494;11.974;2022-09-09T05:18:37;5.53;;;2.65;;
9970;SDS011;5026;51.494;11.974;2022-09-09T05:21:04;3.72;;;2.53;;
9970;SDS011;5026;51.494;11.974;2022-09-09T05:23:33;3.63;;;2.75;;
9970;SDS011;5026;51.494;11.974;2022-09-09T05:26:00;8.10;;;2.53;;
9970;SDS011;5026;51.494;11.974;2022-09-09T05:28:27;5.60;;;3.08;;
9970;SDS011;5026;51.494;11.974;2022-09-09T05:30:55;4.72;;;2.72;;
9970;SDS011;5026;51.494;11.974;2022-09-09T05:33:23;3.90;;;2.60;;
9970;SDS011;5026;51.494;11.974;2022-09-09T05:35:54;4.22;;;2.55;;
9970;SDS011;5026;51.494;11.974;2022-09-09T05:38:22;6.82;;;3.17;;
9970;SDS011;5026;51.494;11.974;2022-09-09T05:40:51;10.13;;;2.95;;
9970;SDS011;5026;51.494;11.974;2022-09-09T05:43:18;4.90;;;2.45;;
9970;SDS011;5026;51.494;11.974;2022-09-09T05:45:46;5.22;;;1.90;;
9970;SDS011;5026;51.494;11.974;2022-09-09T05:48:13;2.75;;;2.00;;
9970;SDS011;5026;51.494;11.974;2022-09-09T05:50:41;3.58;;;1.88;;
9970;SDS011;5026;51.494;11.974;2022-09-09T05:53:10;5.85;;;1.98;;
9970;SDS011;5026;51.494;11.974;2022-09-09T05:55:37;4.70;;;1.73;;
9970;SDS011;5026;51.494;11.974;2022-09-09T05:58:05;4.78;;;1.95;;
9970;SDS011;5026;51.494;11.974;2022-09-09T06:00:32;5.05;;;1.80;;
9970;SDS011;5026;51.494;11.974;2022-09-09T06:02:59;3.78;;;2.17;;
9970;SDS011;5026;51.494;11.974;2022-09-09T06:05:26;4.32;;;2.25;;
9970;SDS011;5026;51.494;11.974;2022-09-09T06:07:53;4.53;;;1.90;;
9970;SDS011;5026;51.494;11.974;2022-09-09T06:10:20;4.47;;;2.20;;
9970;SDS011;5026;51.494;11.974;2022-09-09T06:12:48;2.88;;;2.00;;
9970;SDS011;5026;51.494;11.974;2022-09-09T06:15:16;10.48;;;2.45;;
9970;SDS011;5026;51.494;11.974;2022-09-09T06:17:43;7.30;;;2.30;;
9970;SDS011;5026;51.494;11.974;2022-09-09T06:20:10;11.80;;;2.50;;
9970;SDS011;5026;51.494;11.974;2022-09-09T06:22:39;4.40;;;2.50;;
9970;SDS011;5026;51.494;11.974;2022-09-09T06:25:07;3.75;;;2.30;;
9970;SDS011;5026;51.494;11.974;2022-09-09T06:27:34;5.25;;;2.53;;
9970;SDS011;5026;51.494;11.974;2022-09-09T06:30:01;4.32;;;2.45;;
9970;SDS011;5026;51.494;11.974;2022-09-09T06:32:30;5.72;;;2.47;;
9970;SDS011;5026;51.494;11.974;2022-09-09T06:34:59;6.13;;;2.72;;
9970;SDS011;5026;51.494;11.974;2022-09-09T06:37:27;3.25;;;1.95;;
9970;SDS011;5026;51.494;11.974;2022-09-09T06:39:54;4.88;;;2.05;;
9970;SDS011;5026;51.494;11.974;2022-09-09T06:42:21;6.07;;;2.70;;
9970;SDS011;5026;51.494;11.974;2022-09-09T06:44:48;4.93;;;2.22;;
9970;SDS011;5026;51.494;11.974;2022-09-09T06:47:15;3.42;;;2.00;;
9970;SDS011;5026;51.494;11.974;2022-09-09T06:49:43;5.18;;;1.80;;
9970;SDS011;5026;51.494;11.974;2022-09-09T06:52:10;5.32;;;1.58;;
9970;SDS011;5026;51.494;11.974;2022-09-09T06:54:37;4.25;;;1.33;;
9970;SDS011;5026;51.494;11.974;2022-09-09T06:57:04;2.28;;;1.42;;
9970;SDS011;5026;51.494;11.974;2022-09-09T06:59:32;6.07;;;1.92;;
9970;SDS011;5026;51.494;11.974;2022-09-09T07:01:59;3.53;;;1.45;;
9970;SDS011;5026;51.494;11.974;2022-09-09T07:04:26;4.45;;;1.45;;
9970;SDS011;5026;51.494;11.974;2022-09-09T07:06:54;5.32;;;1.45;;
9970;SDS011;5026;51.494;11.974;2022-09-09T07:09:21;3.70;;;1.00;;
9970;SDS011;5026;51.494;11.974;2022-09-09T07:11:49;3.38;;;1.10;;
9970;SDS011;5026;51.494;11.974;2022-09-09T07:14:17;8.10;;;1.30;;
9970;SDS011;5026;51.494;11.974;2022-09-09T07:16:45;3.95;;;1.08;;
9970;SDS011;5026;51.494;11.974;2022-09-09T07:19:12;1.05;;;0.90;;
9970;SDS011;5026;51.494;11.974;2022-09-09T07:21:39;2.40;;;1.23;;
9970;SDS011;5026;51.494;11.974;2022-09-09T07:24:08;5.13;;;1.70;;
9970;SDS011;5026;51.494;11.974;2022-09-09T07:26:36;1.70;;;1.13;;
9970;SDS011;5026;51.494;11.974;2022-09-09T07:29:03;3.95;;;1.33;;
9970;SDS011;5026;51.494;11.974;2022-09-09T07:31:31;3.45;;;0.88;;
9970;SDS011;5026;51.494;11.974;2022-09-09T07:33:59;9.63;;;2.00;;
9970;SDS011;5026;51.494;11.974;2022-09-09T07:36:27;4.80;;;1.10;;
9970;SDS011;5026;51.494;11.974;2022-09-09T07:38:56;3.13;;;1.10;;
9970;SDS011;5026;51.494;11.974;2022-09-09T07:41:26;4.65;;;1.02;;
9970;SDS011;5026;51.494;11.974;2022-09-09T07:43:55;3.08;;;0.98;;
9970;SDS011;5026;51.494;11.974;2022-09-09T07:46:24;3.15;;;1.08;;
9970;SDS011;5026;51.494;11.974;2022-09-09T07:48:52;2.28;;;1.00;;
9970;SDS011;5026;51.494;11.974;2022-09-09T07:51:21;1.77;;;1.00;;
9970;SDS011;5026;51.494;11.974;2022-09-09T07:53:51;1.65;;;0.98;;
9970;SDS011;5026;51.494;11.974;2022-09-09T07:56:19;4.55;;;1.05;;
9970;SDS011;5026;51.494;11.974;2022-09-09T07:58:49;2.00;;;0.88;;
9970;SDS011;5026;51.494;11.974;2022-09-09T08:01:17;3.92;;;0.98;;
9970;SDS011;5026;51.494;11.974;2022-09-09T08:03:46;2.78;;;1.23;;
9970;SDS011;5026;51.494;11.974;2022-09-09T08:06:18;3.00;;;1.10;;
9970;SDS011;5026;51.494;11.974;2022-09-09T08:08:49;3.20;;;1.15;;
9970;SDS011;5026;51.494;11.974;2022-09-09T08:11:16;2.20;;;0.93;;
9970;SDS011;5026;51.494;11.974;2022-09-09T08:13:43;1.48;;;0.65;;
9970;SDS011;5026;51.494;11.974;2022-09-09T08:16:13;2.92;;;0.82;;
9970;SDS011;5026;51.494;11.974;2022-09-09T08:18:41;7.55;;;0.80;;
9970;SDS011;5026;51.494;11.974;2022-09-09T08:21:08;0.88;;;0.80;;
9970;SDS011;5026;51.494;11.974;2022-09-09T08:23:37;3.55;;;1.20;;
9970;SDS011;5026;51.494;11.974;2022-09-09T08:26:06;2.00;;;0.90;;
9970;SDS011;5026;51.494;11.974;2022-09-09T08:28:35;2.38;;;1.13;;
9970;SDS011;5026;51.494;11.974;2022-09-09T08:31:09;4.30;;;1.23;;
9970;SDS011;5026;51.494;11.974;2022-09-09T08:33:39;2.08;;;0.88;;
9970;SDS011;5026;51.494;11.974;2022-09-09T08:36:06;4.00;;;1.10;;
9970;SDS011;5026;51.494;11.974;2022-09-09T08:38:35;3.47;;;1.40;;
9970;SDS011;5026;51.494;11.974;2022-09-09T08:41:06;3.65;;;1.20;;
9970;SDS011;5026;51.494;11.974;2022-09-09T08:43:48;3.45;;;1.00;;
9970;SDS011;5026;51.494;11.974;2022-09-09T08:46:21;2.67;;;0.85;;
9970;SDS011;5026;51.494;11.974;2022-09-09T08:48:55;5.15;;;1.42;;
9970;SDS011;5026;51.494;11.974;2022-09-09T08:51:26;1.23;;;0.85;;
9970;SDS011;5026;51.494;11.974;2022-09-09T08:53:55;3.47;;;1.13;;
9970;SDS011;5026;51.494;11.974;2022-09-09T08:56:25;4.20;;;1.13;;
9970;SDS011;5026;51.494;11.974;2022-09-09T08:58:57;1.05;;;0.85;;
9970;SDS011;5026;51.494;11.974;2022-09-09T09:01:35;3.67;;;1.17;;
9970;SDS011;5026;51.494;11.974;2022-09-09T09:04:14;8.27;;;1.30;;
9970;SDS011;5026;51.494;11.974;2022-09-09T09:06:54;2.25;;;0.82;;
9970;SDS011;5026;51.494;11.974;2022-09-09T09:09:32;2.50;;;0.90;;
9970;SDS011;5026;51.494;11.974;2022-09-09T09:12:10;1.38;;;0.73;;
9970;SDS011;5026;51.494;11.974;2022-09-09T09:14:42;1.88;;;1.02;;
9970;SDS011;5026;51.494;11.974;2022-09-09T09:17:14;2.42;;;1.20;;
9970;SDS011;5026;51.494;11.974;2022-09-09T09:19:44;1.50;;;0.85;;
9970;SDS011;5026;51.494;11.974;2022-09-09T09:22:14;3.63;;;1.75;;
9970;SDS011;5026;51.494;11.974;2022-09-09T09:24:47;3.85;;;1.23;;
9970;SDS011;5026;51.494;11.974;2022-09-09T09:27:18;2.33;;;0.90;;
9970;SDS011;5026;51.494;11.974;2022-09-09T09:29:53;2.60;;;1.00;;
9970;SDS011;5026;51.494;11.974;2022-09-09T09:32:24;1.23;;;0.70;;
9970;SDS011;5026;51.494;11.974;2022-09-09T09:34:54;3.42;;;1.45;;
9970;SDS011;5026;51.494;11.974;2022-09-09T09:37:25;1.25;;;0.80;;
9970;SDS011;5026;51.494;11.974;2022-09-09T09:39:55;2.10;;;0.88;;
9970;SDS011;5026;51.494;11.974;2022-09-09T09:42:22;3.00;;;1.20;;
9970;SDS011;5026;51.494;11.974;2022-09-09T09:44:49;6.25;;;1.15;;
9970;SDS011;5026;51.494;11.974;2022-09-09T09:47:17;1.88;;;0.77;;
9970;SDS011;5026;51.494;11.974;2022-09-09T09:49:55;2.00;;;0.95;;
9970;SDS011;5026;51.494;11.974;2022-09-09T09:52:24;3.03;;;0.88;;
9970;SDS011;5026;51.494;11.974;2022-09-09T09:54:53;2.58;;;0.93;;
9970;SDS011;5026;51.494;11.974;2022-09-09T09:57:22;4.30;;;1.27;;
9970;SDS011;5026;51.494;11.974;2022-09-09T10:00:00;2.97;;;0.93;;
9970;SDS011;5026;51.494;11.974;2022-09-09T10:02:36;9.55;;;1.50;;
9970;SDS011;5026;51.494;11.974;2022-09-09T10:05:12;3.88;;;1.52;;
9970;SDS011;5026;51.494;11.974;2022-09-09T10:07:40;2.47;;;0.80;;
9970;SDS011;5026;51.494;11.974;2022-09-09T10:10:12;2.88;;;1.20;;
9970;SDS011;5026;51.494;11.974;2022-09-09T10:12:46;2.33;;;0.73;;
9970;SDS011;5026;51.494;11.974;2022-09-09T10:15:24;2.08;;;0.80;;
9970;SDS011;5026;51.494;11.974;2022-09-09T10:18:00;2.67;;;1.17;;
9970;SDS011;5026;51.494;11.974;2022-09-09T10:20:37;3.63;;;1.15;;
9970;SDS011;5026;51.494;11.974;2022-09-09T10:23:13;2.53;;;1.75;;
9970;SDS011;5026;51.494;11.974;2022-09-09T10:28:55;4.55;;;1.30;;
9970;SDS011;5026;51.494;11.974;2022-09-09T10:31:36;2.65;;;1.00;;
9970;SDS011;5026;51.494;11.974;2022-09-09T10:34:14;2.92;;;1.10;;
9970;SDS011;5026;51.494;11.974;2022-09-09T10:36:52;1.92;;;1.10;;
9970;SDS011;5026;51.494;11.974;2022-09-09T10:39:25;1.92;;;0.90;;
9970;SDS011;5026;51.494;11.974;2022-09-09T10:42:01;1.70;;;0.60;;
9970;SDS011;5026;51.494;11.974;2022-09-09T10:44:35;3.80;;;1.00;;
9970;SDS011;5026;51.494;11.974;2022-09-09T10:47:20;2.90;;;0.90;;
9970;SDS011;5026;51.494;11.974;2022-09-09T10:50:18;3.17;;;0.93;;
9970;SDS011;5026;51.494;11.974;2022-09-09T10:53:02;2.03;;;0.95;;
9970;SDS011;5026;51.494;11.974;2022-09-09T10:55:35;1.77;;;0.90;;
9970;SDS011;5026;51.494;11.974;2022-09-09T10:58:09;2.88;;;1.13;;
9970;SDS011;5026;51.494;11.974;2022-09-09T11:00:41;1.42;;;1.10;;
9970;SDS011;5026;51.494;11.974;2022-09-09T11:03:15;3.80;;;1.35;;
9970;SDS011;5026;51.494;11.974;2022-09-09T11:05:47;1.50;;;1.05;;
9970;SDS011;5026;51.494;11.974;2022-09-09T11:08:19;2.47;;;0.70;;
9970;SDS011;5026;51.494;11.974;2022-09-09T11:10:48;2.25;;;0.98;;
9970;SDS011;5026;51.494;11.974;2022-09-09T11:13:21;2.00;;;1.00;;
9970;SDS011;5026;51.494;11.974;2022-09-09T11:15:53;2.80;;;1.02;;
9970;SDS011;5026;51.494;11.974;2022-09-09T11:18:26;1.35;;;0.80;;
9970;SDS011;5026;51.494;11.974;2022-09-09T11:20:58;2.15;;;0.93;;
9970;SDS011;5026;51.494;11.974;2022-09-09T11:23:32;3.50;;;1.25;;
9970;SDS011;5026;51.494;11.974;2022-09-09T11:26:05;0.85;;;0.63;;
9970;SDS011;5026;51.494;11.974;2022-09-09T11:28:39;2.63;;;0.70;;
9970;SDS011;5026;51.494;11.974;2022-09-09T11:31:19;4.35;;;1.10;;
9970;SDS011;5026;51.494;11.974;2022-09-09T11:34:03;1.60;;;0.73;;
9970;SDS011;5026;51.494;11.974;2022-09-09T11:36:54;4.97;;;1.15;;
9970;SDS011;5026;51.494;11.974;2022-09-09T11:42:40;4.15;;;1.38;;
9970;SDS011;5026;51.494;11.974;2022-09-09T11:45:11;2.25;;;0.85;;
9970;SDS011;5026;51.494;11.974;2022-09-09T11:47:51;2.38;;;0.90;;
9970;SDS011;5026;51.494;11.974;2022-09-09T11:50:29;2.78;;;1.05;;
9970;SDS011;5026;51.494;11.974;2022-09-09T11:53:04;3.00;;;1.20;;
9970;SDS011;5026;51.494;11.974;2022-09-09T11:55:47;2.40;;;1.10;;
9970;SDS011;5026;51.494;11.974;2022-09-09T11:58:16;4.90;;;0.88;;
9970;SDS011;5026;51.494;11.974;2022-09-09T12:00:46;7.68;;;1.40;;
9970;SDS011;5026;51.494;11.974;2022-09-09T12:06:11;4.60;;;1.50;;
9970;SDS011;5026;51.494;11.974;2022-09-09T12:08:42;2.65;;;1.00;;
9970;SDS011;5026;51.494;11.974;2022-09-09T12:11:11;2.88;;;1.55;;
9970;SDS011;5026;51.494;11.974;2022-09-09T12:13:53;5.10;;;1.40;;
9970;SDS011;5026;51.494;11.974;2022-09-09T12:16:28;2.47;;;1.83;;
9970;SDS011;5026;51.494;11.974;2022-09-09T12:19:03;2.25;;;0.95;;
9970;SDS011;5026;51.494;11.974;2022-09-09T12:21:33;2.08;;;1.23;;
9970;SDS011;5026;51.494;11.974;2022-09-09T12:24:06;2.33;;;1.10;;
9970;SDS011;5026;51.494;11.974;2022-09-09T12:26:36;3.60;;;1.08;;
9970;SDS011;5026;51.494;11.974;2022-09-09T12:29:12;1.63;;;1.00;;
9970;SDS011;5026;51.494;11.974;2022-09-09T12:31:51;2.15;;;1.63;;
9970;SDS011;5026;51.494;11.974;2022-09-09T12:34:36;2.17;;;1.15;;
9970;SDS011;5026;51.494;11.974;2022-09-09T12:37:06;4.90;;;1.27;;
9970;SDS011;5026;51.494;11.974;2022-09-09T12:39:44;3.22;;;1.10;;
9970;SDS011;5026;51.494;11.974;2022-09-09T12:42:16;3.17;;;1.00;;
9970;SDS011;5026;51.494;11.974;2022-09-09T12:44:51;2.50;;;1.33;;
9970;SDS011;5026;51.494;11.974;2022-09-09T12:47:24;3.50;;;1.10;;
9970;SDS011;5026;51.494;11.974;2022-09-09T12:49:58;3.60;;;1.10;;
9970;SDS011;5026;51.494;11.974;2022-09-09T12:52:27;1.15;;;0.85;;
9970;SDS011;5026;51.494;11.974;2022-09-09T12:54:58;4.13;;;0.95;;
9970;SDS011;5026;51.494;11.974;2022-09-09T12:57:29;4.18;;;0.80;;
9970;SDS011;5026;51.494;11.974;2022-09-09T13:00:06;2.60;;;0.93;;
9970;SDS011;5026;51.494;11.974;2022-09-09T13:02:45;1.45;;;0.90;;
9970;SDS011;5026;51.494;11.974;2022-09-09T13:05:17;1.67;;;1.00;;
9970;SDS011;5026;51.494;11.974;2022-09-09T13:07:46;3.95;;;1.25;;
9970;SDS011;5026;51.494;11.974;2022-09-09T13:10:14;1.40;;;0.90;;
9970;SDS011;5026;51.494;11.974;2022-09-09T13:12:47;2.53;;;0.90;;
9970;SDS011;5026;51.494;11.974;2022-09-09T13:15:16;4.05;;;0.90;;
9970;SDS011;5026;51.494;11.974;2022-09-09T13:17:51;4.00;;;0.90;;
9970;SDS011;5026;51.494;11.974;2022-09-09T13:20:20;2.05;;;0.80;;
9970;SDS011;5026;51.494;11.974;2022-09-09T13:22:48;2.15;;;0.75;;
9970;SDS011;5026;51.494;11.974;2022-09-09T13:25:18;3.72;;;0.98;;
9970;SDS011;5026;51.494;11.974;2022-09-09T13:27:55;3.83;;;1.00;;
9970;SDS011;5026;51.494;11.974;2022-09-09T13:30:27;2.15;;;1.17;;
9970;SDS011;5026;51.494;11.974;2022-09-09T13:33:06;5.65;;;1.13;;
9970;SDS011;5026;51.494;11.974;2022-09-09T13:35:49;2.40;;;1.30;;
9970;SDS011;5026;51.494;11.974;2022-09-09T13:38:19;2.15;;;0.88;;
9970;SDS011;5026;51.494;11.974;2022-09-09T13:40:52;1.67;;;0.65;;
9970;SDS011;5026;51.494;11.974;2022-09-09T13:43:22;1.83;;;0.90;;
9970;SDS011;5026;51.494;11.974;2022-09-09T13:45:56;3.88;;;0.70;;
9970;SDS011;5026;51.494;11.974;2022-09-09T13:48:24;2.45;;;0.80;;
9970;SDS011;5026;51.494;11.974;2022-09-09T13:50:55;1.88;;;0.77;;
9970;SDS011;5026;51.494;11.974;2022-09-09T13:53:24;2.72;;;0.93;;
9970;SDS011;5026;51.494;11.974;2022-09-09T13:55:51;4.55;;;1.00;;
9970;SDS011;5026;51.494;11.974;2022-09-09T13:58:18;3.55;;;0.75;;
9970;SDS011;5026;51.494;11.974;2022-09-09T14:00:46;3.63;;;1.00;;
9970;SDS011;5026;51.494;11.974;2022-09-09T14:03:16;1.35;;;0.88;;
9970;SDS011;5026;51.494;11.974;2022-09-09T14:05:43;1.60;;;0.60;;
9970;SDS011;5026;51.494;11.974;2022-09-09T14:08:13;3.35;;;1.08;;
9970;SDS011;5026;51.494;11.974;2022-09-09T14:10:43;2.50;;;1.00;;
9970;SDS011;5026;51.494;11.974;2022-09-09T14:13:10;3.13;;;0.90;;
9970;SDS011;5026;51.494;11.974;2022-09-09T14:15:37;2.65;;;0.82;;
9970;SDS011;5026;51.494;11.974;2022-09-09T14:18:04;2.10;;;0.80;;
9970;SDS011;5026;51.494;11.974;2022-09-09T14:20:32;1.95;;;0.73;;
9970;SDS011;5026;51.494;11.974;2022-09-09T14:22:59;4.32;;;0.77;;
9970;SDS011;5026;51.494;11.974;2022-09-09T14:25:26;1.95;;;0.90;;
9970;SDS011;5026;51.494;11.974;2022-09-09T14:27:53;2.42;;;0.70;;
9970;SDS011;5026;51.494;11.974;2022-09-09T14:30:21;1.55;;;0.70;;
9970;SDS011;5026;51.494;11.974;2022-09-09T14:32:48;0.90;;;0.50;;
9970;SDS011;5026;51.494;11.974;2022-09-09T14:35:14;3.42;;;1.30;;
9970;SDS011;5026;51.494;11.974;2022-09-09T14:37:43;2.00;;;0.65;;
9970;SDS011;5026;51.494;11.974;2022-09-09T14:40:11;1.42;;;0.93;;
9970;SDS011;5026;51.494;11.974;2022-09-09T14:42:39;2.33;;;0.47;;
9970;SDS011;5026;51.494;11.974;2022-09-09T14:45:06;2.28;;;0.55;;
9970;SDS011;5026;51.494;11.974;2022-09-09T14:47:34;1.35;;;0.30;;
9970;SDS011;5026;51.494;11.974;2022-09-09T14:50:03;1.20;;;0.60;;
9970;SDS011;5026;51.494;11.974;2022-09-09T14:52:31;1.58;;;0.60;;
9970;SDS011;5026;51.494;11.974;2022-09-09T14:54:59;1.52;;;0.52;;
9970;SDS011;5026;51.494;11.974;2022-09-09T14:57:26;0.85;;;0.60;;
9970;SDS011;5026;51.494;11.974;2022-09-09T14:59:53;0.98;;;0.50;;
9970;SDS011;5026;51.494;11.974;2022-09-09T15:02:20;1.27;;;0.50;;
9970;SDS011;5026;51.494;11.974;2022-09-09T15:04:46;1.85;;;0.68;;
9970;SDS011;5026;51.494;11.974;2022-09-09T15:07:14;1.77;;;0.40;;
9970;SDS011;5026;51.494;11.974;2022-09-09T15:09:44;0.43;;;0.38;;
9970;SDS011;5026;51.494;11.974;2022-09-09T15:12:14;2.13;;;0.65;;
9970;SDS011;5026;51.494;11.974;2022-09-09T15:14:43;2.30;;;0.73;;
9970;SDS011;5026;51.494;11.974;2022-09-09T15:17:10;0.40;;;0.30;;
9970;SDS011;5026;51.494;11.974;2022-09-09T15:19:37;1.52;;;0.50;;
9970;SDS011;5026;51.494;11.974;2022-09-09T15:22:04;1.23;;;0.40;;
9970;SDS011;5026;51.494;11.974;2022-09-09T15:24:32;1.48;;;0.40;;
9970;SDS011;5026;51.494;11.974;2022-09-09T15:27:00;0.80;;;0.50;;
9970;SDS011;5026;51.494;11.974;2022-09-09T15:29:29;2.05;;;0.63;;
9970;SDS011;5026;51.494;11.974;2022-09-09T15:31:56;1.55;;;0.50;;
9970;SDS011;5026;51.494;11.974;2022-09-09T15:34:23;1.48;;;0.80;;